createdAt,value
2019-05-12T00:00:42.496Z,48.17
2019-05-12T00:03:11.595Z,48.12
2019-05-12T00:05:40.652Z,48.13
2019-05-12T00:08:09.679Z,48.25
2019-05-12T00:10:38.944Z,48.23
2019-05-12T00:13:08.630Z,48.35
2019-05-12T00:15:38.560Z,48.46
2019-05-12T00:18:09.075Z,48.59
2019-05-12T00:20:38.757Z,48.57
2019-05-12T00:23:23.077Z,48.60
2019-05-12T00:25:58.723Z,48.78
2019-05-12T00:28:28.512Z,48.87
2019-05-12T00:30:58.157Z,48.87
2019-05-12T00:33:28.255Z,48.98
2019-05-12T00:35:58.720Z,49.01
2019-05-12T00:38:27.958Z,49.16
2019-05-12T00:40:58.374Z,49.13
2019-05-12T00:43:28.165Z,49.07
2019-05-12T00:45:58.707Z,49.27
2019-05-12T00:48:28.401Z,49.23
2019-05-12T00:50:58.407Z,49.43
2019-05-12T00:53:39.004Z,49.48
2019-05-12T00:55:58.569Z,49.64
2019-05-12T00:58:27.942Z,49.61
2019-05-12T01:00:59.624Z,49.51
2019-05-12T01:03:28.140Z,49.40
2019-05-12T01:05:57.743Z,49.38
2019-05-12T01:08:28.047Z,49.26
2019-05-12T01:10:58.329Z,49.22
2019-05-12T01:13:28.096Z,49.25
2019-05-12T01:15:58.706Z,49.23
2019-05-12T01:18:28.193Z,49.23
2019-05-12T01:20:58.354Z,49.42
2019-05-12T01:23:28.242Z,49.41
2019-05-12T01:25:58.581Z,49.58
2019-05-12T01:28:28.053Z,49.68
2019-05-12T01:30:58.844Z,49.76
2019-05-12T01:33:28.215Z,49.78
2019-05-12T01:35:58.629Z,49.66
2019-05-12T01:38:28.786Z,49.71
2019-05-12T01:40:58.490Z,49.72
2019-05-12T01:43:27.939Z,50.02
2019-05-12T01:45:58.870Z,49.96
2019-05-12T01:48:28.756Z,49.89
2019-05-12T01:50:58.355Z,50.01
2019-05-12T01:53:28.702Z,49.88
2019-05-12T01:55:58.547Z,49.85
2019-05-12T01:58:27.958Z,49.76
2019-05-12T02:00:58.853Z,49.67
2019-05-12T02:03:28.451Z,49.51
2019-05-12T02:05:59.020Z,49.55
2019-05-12T02:08:38.403Z,49.78
2019-05-12T02:11:25.267Z,49.64
2019-05-12T02:13:54.360Z,49.58
2019-05-12T02:16:23.424Z,49.54
2019-05-12T02:18:52.561Z,49.49
2019-05-12T02:21:21.587Z,49.54
2019-05-12T02:23:50.698Z,49.44
2019-05-12T02:26:19.740Z,49.56
2019-05-12T02:28:48.807Z,49.63
2019-05-12T02:31:20.779Z,49.71
2019-05-12T02:33:48.634Z,49.98
2019-05-12T02:36:17.662Z,50.08
2019-05-12T02:38:46.789Z,50.21
2019-05-12T02:41:15.879Z,50.25
2019-05-12T02:43:45.851Z,50.40
2019-05-12T02:46:15.804Z,50.47
2019-05-12T02:48:45.225Z,50.51
2019-05-12T02:51:15.572Z,50.50
2019-05-12T02:53:47.088Z,50.38
2019-05-12T02:56:15.706Z,50.39
2019-05-12T02:58:45.354Z,50.41
2019-05-12T03:01:15.296Z,50.45
2019-05-12T03:03:44.464Z,50.59
2019-05-12T03:06:15.192Z,50.69
2019-05-12T03:08:44.954Z,50.82
2019-05-12T03:11:14.905Z,50.78
2019-05-12T03:13:44.899Z,50.82
2019-05-12T03:16:15.153Z,50.92
2019-05-12T03:18:45.105Z,51.06
2019-05-12T03:21:15.397Z,51.13
2019-05-12T03:23:44.977Z,51.18
2019-05-12T03:26:15.314Z,51.39
2019-05-12T03:28:44.837Z,51.52
2019-05-12T03:31:22.238Z,51.64
2019-05-12T03:33:51.987Z,51.81
2019-05-12T03:36:17.830Z,51.92
2019-05-12T03:38:46.369Z,52.00
2019-05-12T03:41:15.399Z,52.15
2019-05-12T03:43:44.986Z,52.25
2019-05-12T03:46:15.215Z,52.36
2019-05-12T03:48:45.531Z,52.38
2019-05-12T03:51:15.601Z,52.36
2019-05-12T03:53:45.595Z,52.46
2019-05-12T03:56:15.367Z,52.63
2019-05-12T03:58:45.405Z,52.57
2019-05-12T04:01:15.265Z,52.70
2019-05-12T04:03:45.287Z,52.66
2019-05-12T04:06:15.586Z,52.61
2019-05-12T04:08:45.769Z,52.54
2019-05-12T04:11:15.017Z,52.40
2019-05-12T04:13:45.126Z,52.25
2019-05-12T04:16:16.333Z,52.18
2019-05-12T04:18:45.329Z,52.23
2019-05-12T04:21:15.526Z,52.12
2019-05-12T04:23:45.079Z,52.02
2019-05-12T04:26:16.915Z,51.93
2019-05-12T04:28:45.745Z,51.79
2019-05-12T04:31:15.602Z,51.64
2019-05-12T04:33:45.296Z,51.46
2019-05-12T04:36:15.176Z,51.45
2019-05-12T04:38:45.162Z,51.23
2019-05-12T04:41:19.800Z,51.23
2019-05-12T04:43:47.637Z,51.27
2019-05-12T04:46:16.714Z,51.06
2019-05-12T04:48:45.860Z,50.85
2019-05-12T04:51:15.536Z,50.97
2019-05-12T04:53:45.147Z,50.97
2019-05-12T04:56:19.111Z,50.80
2019-05-12T04:58:45.307Z,50.58
2019-05-12T05:01:15.510Z,50.22
2019-05-12T05:03:44.841Z,49.87
2019-05-12T05:06:14.827Z,49.83
2019-05-12T05:08:44.472Z,49.69
2019-05-12T05:11:14.721Z,49.46
2019-05-12T05:13:44.532Z,49.51
2019-05-12T05:16:14.381Z,49.09
2019-05-12T05:18:44.148Z,49.08
2019-05-12T05:21:13.970Z,49.34
2019-05-12T05:23:44.315Z,49.18
2019-05-12T05:26:22.203Z,48.74
2019-05-12T05:28:44.325Z,48.51
2019-05-12T05:31:14.067Z,48.66
2019-05-12T05:33:43.587Z,48.47
2019-05-12T05:36:15.110Z,48.22
2019-05-12T05:38:43.796Z,47.81
2019-05-12T05:41:13.450Z,47.50
2019-05-12T05:43:43.788Z,47.26
2019-05-12T05:46:13.799Z,46.87
2019-05-12T05:48:43.944Z,46.93
2019-05-12T05:51:13.762Z,46.88
2019-05-12T05:53:44.179Z,46.66
2019-05-12T05:56:14.395Z,46.42
2019-05-12T05:58:50.158Z,46.40
2019-05-12T06:01:15.079Z,45.98
2019-05-12T06:03:44.334Z,45.59
2019-05-12T06:06:15.401Z,45.26
2019-05-12T06:08:57.734Z,44.57
2019-05-12T06:11:28.569Z,44.46
2019-05-12T06:14:03.159Z,44.50
2019-05-12T06:16:28.639Z,44.38
2019-05-12T06:18:57.748Z,43.57
2019-05-12T06:21:29.036Z,43.40
2019-05-12T06:23:57.668Z,42.87
2019-05-12T06:26:31.479Z,42.44
2019-05-12T06:28:57.834Z,42.76
2019-05-12T06:31:29.828Z,42.29
2019-05-12T06:33:57.869Z,41.62
2019-05-12T06:36:27.460Z,40.85
2019-05-12T06:38:56.571Z,40.28
2019-05-12T06:41:25.965Z,40.06
2019-05-12T06:43:55.206Z,39.22
2019-05-12T06:46:25.967Z,38.39
2019-05-12T06:48:55.095Z,38.36
2019-05-12T06:51:25.898Z,36.81
2019-05-12T06:53:55.113Z,36.84
2019-05-12T06:56:24.222Z,35.68
2019-05-12T06:58:53.568Z,35.13
2019-05-12T07:01:24.182Z,35.27
2019-05-12T07:03:53.522Z,34.38
2019-05-12T07:06:24.731Z,31.99
2019-05-12T07:11:24.253Z,32.24
2019-05-12T07:14:02.149Z,32.11
2019-05-12T07:16:29.992Z,32.67
2019-05-12T07:18:55.389Z,32.67
2019-05-12T07:21:27.161Z,32.59
2019-05-12T07:23:55.403Z,30.29
2019-05-12T07:26:24.552Z,28.32
2019-05-12T07:28:54.179Z,28.73
2019-05-12T07:31:23.413Z,28.40
2019-05-12T07:33:54.248Z,27.85
2019-05-12T07:36:24.292Z,27.75
2019-05-12T07:38:55.883Z,27.72
2019-05-12T07:41:25.414Z,28.37
2019-05-12T07:43:56.742Z,28.28
2019-05-12T07:46:27.908Z,29.12
2019-05-12T07:48:56.312Z,29.50
2019-05-12T07:51:30.247Z,29.65
2019-05-12T07:53:58.954Z,30.28
2019-05-12T07:56:32.558Z,30.71
2019-05-12T07:58:58.108Z,30.89
2019-05-12T08:01:27.168Z,30.45
2019-05-12T08:04:01.283Z,30.13
2019-05-12T08:06:27.151Z,30.58
2019-05-12T08:08:59.035Z,29.02
2019-05-12T08:11:36.650Z,27.98
2019-05-12T08:14:00.655Z,26.53
2019-05-12T08:16:36.224Z,26.46
2019-05-12T08:19:03.972Z,24.58
2019-05-12T08:21:34.815Z,25.49
2019-05-12T08:24:03.870Z,25.87
2019-05-12T08:26:33.542Z,26.11
2019-05-12T08:29:04.239Z,26.15
2019-05-12T08:31:40.156Z,26.61
2019-05-12T08:34:04.486Z,27.20
2019-05-12T08:36:33.649Z,27.37
2019-05-12T08:39:05.880Z,27.91
2019-05-12T08:41:34.187Z,27.97
2019-05-12T08:44:04.628Z,27.97
2019-05-12T08:46:34.358Z,27.94
2019-05-12T08:49:05.332Z,28.22
2019-05-12T08:51:34.616Z,27.94
2019-05-12T08:54:07.822Z,27.78
2019-05-12T08:56:34.881Z,27.48
2019-05-12T08:59:04.430Z,26.30
2019-05-12T09:01:34.411Z,26.01
2019-05-12T09:04:06.489Z,25.04
2019-05-12T09:06:35.224Z,24.33
2019-05-12T09:09:07.453Z,23.53
2019-05-12T09:11:36.532Z,22.91
2019-05-12T09:14:06.010Z,22.60
2019-05-12T09:16:35.338Z,22.54
2019-05-12T09:19:04.991Z,22.26
2019-05-12T09:21:37.003Z,21.47
2019-05-12T09:24:05.468Z,20.88
2019-05-12T09:26:37.429Z,18.86
2019-05-12T09:29:13.900Z,18.40
2019-05-12T09:31:44.036Z,18.20
2019-05-12T09:34:20.848Z,18.10
2019-05-12T09:36:51.971Z,18.39
2019-05-12T09:39:23.352Z,18.80
2019-05-12T09:41:54.799Z,19.41
2019-05-12T09:44:36.871Z,19.88
2019-05-12T09:47:12.939Z,20.40
2019-05-12T09:49:39.562Z,20.43
2019-05-12T09:52:35.637Z,19.55
2019-05-12T09:55:04.975Z,18.88
2019-05-12T09:57:40.767Z,18.04
2019-05-12T10:00:05.469Z,17.34
2019-05-12T10:02:34.659Z,16.58
2019-05-12T10:05:04.093Z,15.99
2019-05-12T10:07:33.938Z,15.21
2019-05-12T10:10:03.803Z,15.01
2019-05-12T10:12:38.663Z,14.76
2019-05-12T10:15:04.388Z,14.13
2019-05-12T10:17:34.111Z,13.44
2019-05-12T10:20:03.326Z,12.52
2019-05-12T10:22:40.031Z,11.99
2019-05-12T10:25:08.604Z,12.02
2019-05-12T10:27:37.812Z,11.69
2019-05-12T10:30:12.106Z,12.33
2019-05-12T10:32:38.944Z,11.86
2019-05-12T10:35:12.642Z,11.91
2019-05-12T10:37:39.182Z,12.40
2019-05-12T10:40:08.430Z,12.30
2019-05-12T10:42:39.778Z,11.86
2019-05-12T10:45:10.771Z,11.84
2019-05-12T10:47:39.775Z,12.09
2019-05-12T10:50:08.938Z,12.83
2019-05-12T10:52:39.083Z,13.69
2019-05-12T10:55:08.350Z,14.63
2019-05-12T10:57:43.944Z,14.72
2019-05-12T11:00:19.756Z,13.70
2019-05-12T11:02:45.815Z,12.46
2019-05-12T11:05:21.103Z,11.33
2019-05-12T11:07:45.852Z,10.75
2019-05-12T11:10:19.603Z,10.02
2019-05-12T11:12:45.929Z,10.79
2019-05-12T11:15:15.097Z,11.49
2019-05-12T11:18:01.763Z,11.88
2019-05-12T11:20:34.392Z,11.98
2019-05-12T11:23:03.726Z,11.77
2019-05-12T11:25:34.187Z,11.90
2019-05-12T11:28:03.932Z,12.30
2019-05-12T11:30:34.508Z,13.31
2019-05-12T11:33:04.577Z,13.98
2019-05-12T11:35:34.366Z,14.63
2019-05-12T11:38:04.586Z,15.27
2019-05-12T11:40:34.625Z,15.58
2019-05-12T11:43:04.672Z,15.64
2019-05-12T11:45:35.004Z,16.43
2019-05-12T11:48:09.957Z,16.84
2019-05-12T11:50:34.984Z,17.56
2019-05-12T11:53:04.434Z,17.55
2019-05-12T11:55:34.961Z,17.96
2019-05-12T11:58:09.209Z,17.69
2019-05-12T12:00:37.214Z,18.48
2019-05-12T12:03:12.681Z,18.90
2019-05-12T12:05:38.324Z,18.90
2019-05-12T12:08:07.765Z,18.81
2019-05-12T12:10:39.669Z,18.83
2019-05-12T12:13:08.168Z,19.34
2019-05-12T12:15:37.814Z,19.77
2019-05-12T12:18:13.005Z,20.05
2019-05-12T12:20:37.943Z,20.14
2019-05-12T12:23:10.995Z,20.08
2019-05-12T12:25:38.244Z,20.13
2019-05-12T12:28:07.494Z,20.24
2019-05-12T12:30:36.667Z,20.48
2019-05-12T12:33:06.110Z,20.71
2019-05-12T12:35:35.846Z,20.92
2019-05-12T12:38:05.128Z,20.98
2019-05-12T12:40:34.323Z,21.21
2019-05-12T12:43:04.042Z,21.11
2019-05-12T12:45:40.461Z,21.14
2019-05-12T12:48:10.201Z,21.43
2019-05-12T12:50:39.285Z,21.28
2019-05-12T12:53:09.156Z,21.80
2019-05-12T12:55:43.400Z,20.92
2019-05-12T12:58:09.111Z,21.40
2019-05-12T13:00:47.222Z,21.54
2019-05-12T13:03:09.413Z,21.54
2019-05-12T13:05:38.488Z,21.69
2019-05-12T13:08:07.605Z,21.26
2019-05-12T13:10:40.496Z,21.58
2019-05-12T13:13:07.532Z,21.93
2019-05-12T13:15:36.554Z,22.56
2019-05-12T13:18:08.782Z,22.06
2019-05-12T13:20:36.484Z,22.21
2019-05-12T13:23:05.598Z,22.05
2019-05-12T13:25:38.886Z,21.77
2019-05-12T13:28:10.165Z,21.16
2019-05-12T13:30:46.053Z,20.65
2019-05-12T13:33:13.394Z,20.78
2019-05-12T13:35:40.887Z,20.92
2019-05-12T13:38:10.011Z,21.06
2019-05-12T13:40:39.550Z,21.44
2019-05-12T13:43:15.715Z,21.67
2019-05-12T13:45:39.606Z,21.53
2019-05-12T13:48:09.467Z,21.58
2019-05-12T13:50:40.347Z,21.98
2019-05-12T13:53:10.335Z,21.55
2019-05-12T13:55:45.518Z,21.48
2019-05-12T13:58:10.430Z,21.46
2019-05-12T14:00:50.923Z,21.35
2019-05-12T14:03:14.029Z,21.39
2019-05-12T14:05:50.494Z,21.73
2019-05-12T14:08:16.930Z,21.86
2019-05-12T14:10:53.782Z,22.05
2019-05-12T14:13:17.547Z,21.83
2019-05-12T14:15:50.483Z,21.84
2019-05-12T14:18:20.821Z,21.77
2019-05-12T14:20:50.965Z,21.89
2019-05-12T14:23:20.856Z,21.54
2019-05-12T14:25:49.998Z,21.60
2019-05-12T14:28:19.203Z,21.58
2019-05-12T14:30:51.613Z,21.66
2019-05-12T14:33:19.275Z,21.82
2019-05-12T14:35:49.315Z,21.72
2019-05-12T14:38:19.428Z,21.77
2019-05-12T14:40:49.209Z,21.83
2019-05-12T14:43:21.282Z,21.56
2019-05-12T14:45:49.361Z,21.39
2019-05-12T14:48:18.406Z,21.56
2019-05-12T14:50:47.520Z,21.17
2019-05-12T14:53:16.592Z,21.08
2019-05-12T14:55:45.814Z,21.15
2019-05-12T14:58:20.605Z,21.16
2019-05-12T15:00:50.991Z,21.09
2019-05-12T15:03:17.709Z,21.11
2019-05-12T15:05:48.689Z,21.22
2019-05-12T15:08:21.134Z,21.50
2019-05-12T15:10:48.754Z,21.65
2019-05-12T15:13:17.885Z,21.96
2019-05-12T15:15:50.038Z,22.19
2019-05-12T15:18:17.949Z,22.22
2019-05-12T15:20:49.736Z,22.56
2019-05-12T15:23:18.139Z,22.80
2019-05-12T15:25:47.224Z,22.92
2019-05-12T15:28:16.454Z,23.08
2019-05-12T15:30:45.546Z,23.09
2019-05-12T15:33:14.781Z,23.06
2019-05-12T15:35:44.131Z,23.27
2019-05-12T15:38:14.729Z,23.48
2019-05-12T15:40:44.216Z,23.48
2019-05-12T15:43:13.851Z,23.73
2019-05-12T15:45:43.775Z,23.93
2019-05-12T15:48:14.562Z,23.88
2019-05-12T15:50:45.793Z,24.08
2019-05-12T15:53:22.097Z,24.23
2019-05-12T15:55:49.774Z,24.42
2019-05-12T15:58:16.257Z,24.54
2019-05-12T16:00:45.334Z,24.71
2019-05-12T16:03:14.473Z,25.04
2019-05-12T16:05:44.457Z,25.44
2019-05-12T16:08:15.161Z,25.86
2019-05-12T16:10:44.557Z,26.00
2019-05-12T16:13:15.754Z,26.07
2019-05-12T16:15:49.349Z,26.16
2019-05-12T16:18:23.486Z,26.13
2019-05-12T16:20:53.568Z,26.22
2019-05-12T16:23:29.631Z,26.45
2019-05-12T16:26:01.375Z,26.95
2019-05-12T16:28:27.756Z,27.38
2019-05-12T16:31:07.091Z,27.88
2019-05-12T16:33:33.295Z,27.99
2019-05-12T16:36:09.433Z,28.60
2019-05-12T16:38:32.518Z,28.94
2019-05-12T16:41:03.777Z,29.17
2019-05-12T16:43:35.085Z,29.39
2019-05-12T16:46:04.351Z,29.87
2019-05-12T16:48:36.188Z,29.94
2019-05-12T16:51:04.871Z,30.27
2019-05-12T16:53:34.182Z,30.83
2019-05-12T16:56:04.149Z,31.00
2019-05-12T16:58:35.453Z,31.51
2019-05-12T17:01:04.697Z,31.46
2019-05-12T17:03:36.113Z,31.64
2019-05-12T17:06:05.307Z,31.80
2019-05-12T17:08:34.566Z,31.99
2019-05-12T17:11:23.278Z,32.15
2019-05-12T17:13:36.733Z,32.29
2019-05-12T17:16:05.956Z,32.38
2019-05-12T17:18:37.911Z,32.51
2019-05-12T17:21:07.159Z,32.58
2019-05-12T17:23:36.683Z,32.39
2019-05-12T17:26:06.045Z,32.54
2019-05-12T17:28:38.120Z,32.47
2019-05-12T17:31:07.405Z,32.58
2019-05-12T17:33:39.062Z,32.73
2019-05-12T17:36:14.413Z,32.95
2019-05-12T17:38:39.061Z,32.93
2019-05-12T17:41:08.713Z,33.13
2019-05-12T17:43:45.036Z,33.37
2019-05-12T17:46:12.401Z,33.42
2019-05-12T17:48:42.745Z,33.41
2019-05-12T17:51:10.778Z,33.61
2019-05-12T17:53:39.976Z,33.43
2019-05-12T17:56:09.467Z,33.45
2019-05-12T17:58:44.525Z,33.90
2019-05-12T18:01:10.149Z,34.10
2019-05-12T18:03:44.796Z,34.36
2019-05-12T18:06:10.608Z,34.01
2019-05-12T18:08:39.858Z,34.17
2019-05-12T18:11:11.407Z,34.22
2019-05-12T18:13:40.226Z,34.60
2019-05-12T18:16:11.635Z,34.53
2019-05-12T18:18:40.260Z,34.80
2019-05-12T18:21:13.120Z,35.69
2019-05-12T18:23:40.156Z,36.03
2019-05-12T18:26:11.708Z,35.21
2019-05-12T18:28:40.119Z,35.45
2019-05-12T18:31:09.127Z,35.38
2019-05-12T18:33:49.039Z,35.60
2019-05-12T18:36:09.000Z,35.21
2019-05-12T18:38:38.056Z,35.20
2019-05-12T18:41:07.075Z,35.35
2019-05-12T18:43:36.124Z,35.40
2019-05-12T18:46:08.854Z,35.27
2019-05-12T18:48:36.020Z,35.23
2019-05-12T18:51:11.955Z,35.33
2019-05-12T18:53:35.836Z,35.40
2019-05-12T18:56:04.882Z,35.65
2019-05-12T18:58:35.476Z,35.68
2019-05-12T19:01:06.094Z,35.78
2019-05-12T19:03:46.822Z,35.85
2019-05-12T19:06:05.869Z,35.78
2019-05-12T19:08:34.996Z,36.08
2019-05-12T19:11:17.955Z,36.18
2019-05-12T19:13:34.925Z,36.25
2019-05-12T19:16:07.030Z,36.31
2019-05-12T19:18:37.253Z,36.60
2019-05-12T19:21:10.107Z,36.89
2019-05-12T19:23:37.779Z,37.09
2019-05-12T19:26:06.813Z,37.19
2019-05-12T19:28:35.910Z,37.18
2019-05-12T19:31:08.732Z,37.32
2019-05-12T19:33:35.691Z,37.35
2019-05-12T19:36:07.853Z,37.48
2019-05-12T19:38:35.560Z,37.57
2019-05-12T19:41:04.855Z,37.52
2019-05-12T19:43:34.131Z,37.79
2019-05-12T19:46:04.741Z,37.90
2019-05-12T19:48:43.084Z,38.20
2019-05-12T19:51:19.957Z,38.63
2019-05-12T19:53:35.781Z,38.87
2019-05-12T19:56:04.831Z,39.08
2019-05-12T19:58:34.164Z,39.38
2019-05-12T20:01:03.637Z,39.54
2019-05-12T20:03:33.554Z,39.64
2019-05-12T20:06:02.702Z,39.91
2019-05-12T20:08:31.772Z,40.06
2019-05-12T20:11:00.884Z,40.22
2019-05-12T20:13:36.030Z,40.44
2019-05-12T20:16:00.697Z,40.33
2019-05-12T20:18:36.090Z,40.32
2019-05-12T20:21:00.527Z,40.34
2019-05-12T20:23:29.527Z,40.38
2019-05-12T20:25:58.633Z,40.65
2019-05-12T20:28:27.654Z,40.57
2019-05-12T20:31:00.673Z,40.52
2019-05-12T20:33:27.591Z,40.51
2019-05-12T20:35:56.623Z,39.92
2019-05-12T20:38:33.913Z,39.77
2019-05-12T20:40:56.576Z,38.81
2019-05-12T20:43:32.323Z,38.73
2019-05-12T20:45:59.646Z,38.07
2019-05-12T20:48:31.168Z,37.52
2019-05-12T20:50:59.656Z,37.51
2019-05-12T20:53:31.876Z,37.30
2019-05-12T20:55:59.550Z,37.38
2019-05-12T20:58:35.233Z,37.28
2019-05-12T21:01:05.186Z,37.20
2019-05-12T21:03:33.643Z,37.31
2019-05-12T21:06:04.443Z,37.37
2019-05-12T21:08:33.912Z,37.28
2019-05-12T21:11:03.083Z,37.30
2019-05-12T21:13:34.528Z,37.30
2019-05-12T21:16:15.821Z,37.32
2019-05-12T21:18:47.098Z,37.29
2019-05-12T21:21:04.718Z,37.38
2019-05-12T21:23:33.910Z,37.59
2019-05-12T21:26:04.152Z,37.62
2019-05-12T21:28:37.024Z,37.62
2019-05-12T21:31:04.180Z,37.58
2019-05-12T21:33:40.026Z,37.54
2019-05-12T21:36:04.107Z,37.62
2019-05-12T21:38:34.100Z,37.71
2019-05-12T21:41:07.755Z,37.77
2019-05-12T21:43:34.099Z,37.91
2019-05-12T21:46:07.744Z,37.88
2019-05-12T21:48:34.110Z,37.99
2019-05-12T21:51:04.159Z,38.06
2019-05-12T21:53:34.502Z,38.16
2019-05-12T21:56:05.492Z,38.36
2019-05-12T21:58:34.685Z,38.35
2019-05-12T22:01:05.112Z,38.55
2019-05-12T22:03:34.503Z,38.61
2019-05-12T22:06:15.636Z,38.72
2019-05-12T22:08:34.365Z,38.74
2019-05-12T22:11:09.039Z,38.84
2019-05-12T22:13:34.131Z,38.94
2019-05-12T22:16:03.843Z,39.17
2019-05-12T22:18:33.442Z,39.30
2019-05-12T22:21:06.546Z,39.37
2019-05-12T22:23:33.842Z,39.47
2019-05-12T22:26:04.310Z,39.54
2019-05-12T22:28:34.226Z,39.73
2019-05-12T22:31:03.457Z,39.70
2019-05-12T22:33:33.415Z,39.82
2019-05-12T22:36:08.429Z,39.83
2019-05-12T22:38:34.052Z,40.08
2019-05-12T22:41:04.298Z,40.25
2019-05-12T22:43:41.012Z,40.17
2019-05-12T22:46:04.670Z,40.28
2019-05-12T22:48:37.234Z,40.40
2019-05-12T22:51:23.543Z,40.51
2019-05-12T22:53:47.634Z,40.63
2019-05-12T22:56:18.006Z,40.69
2019-05-12T22:58:52.016Z,40.67
2019-05-12T23:01:18.069Z,40.80
2019-05-12T23:03:51.427Z,40.88
2019-05-12T23:06:23.505Z,40.85
2019-05-12T23:08:49.437Z,40.96
2019-05-12T23:11:23.523Z,41.04
2019-05-12T23:13:49.344Z,41.14
2019-05-12T23:16:19.236Z,41.35
2019-05-12T23:18:49.073Z,41.31
2019-05-12T23:21:18.078Z,41.42
2019-05-12T23:23:49.803Z,41.54
2019-05-12T23:26:17.926Z,41.72
2019-05-12T23:28:50.323Z,41.93
2019-05-12T23:31:19.616Z,41.89
2019-05-12T23:33:48.683Z,41.93
2019-05-12T23:36:19.598Z,42.12
2019-05-12T23:38:54.109Z,42.28
2019-05-12T23:41:19.228Z,42.36
2019-05-12T23:43:48.282Z,42.47
2019-05-12T23:46:17.408Z,42.82
2019-05-12T23:48:46.431Z,42.85
2019-05-12T23:51:15.539Z,42.98
2019-05-12T23:53:44.569Z,43.01
2019-05-12T23:56:13.587Z,43.28
2019-05-12T23:58:43.264Z,43.42
